Wesley Chapel, Arkansas
Current Conditions -  °F | °C
As of 9:53 AM on Thursday 30 Oct 2014 (Local Time) from KRUE Reporting Station
Clear Clear  
Wind Chill: 53°   Ceiling: Unl
Heat Index: 53°   Visibility: 10mi
Dew Point: 48°   Wind: 3mph
Humidity: 83%   Direction: 210°SSW
Pressure: 30.16"   Gusts: NA
Location:  35.227°N, 92.6879°W
Report Text: KRUE 301453Z AUTO 21003KT 10SM CLR 12/09 A3016 RMK AO2 SLP211 T01170089 53000
Loading
Personal Weather Stations






























Interactive Weather Map
Tropical Storm Tracking
New forecast layout! Learn more

10-Day Weather Forecast

Advertisements
Track Severe Weather on mobile